EDLN/MGL METAR and TAF weather

Enter ICAO airport designator
Station Type Date Time Source
EDLN METAR 2020/12/01 21:50 UTC NOAA

EDLN 012150Z AUTO 13003KT 2700 // FEW004/// OVC008/// 06/06 Q1019


Station Type Date Time Source
EDLN Decoded METAR 2020/12/01 21:50 UTC NOAA

Monchengladbach, Germany (EDLN) 51-13-49N 006-30-16E
Dec 01, 2020 - 04:50 PM EST / 2020.12.01 2150 UTC
Wind: from the SE (130 degrees) at 3 MPH (3 KT):0
Visibility: 1 mile(s):0
Sky conditions: overcast
Temperature: 42 F (6 C)
Dew Point: 42 F (6 C)
Relative Humidity: 100%
Pressure (altimeter): 30.09 in. Hg (1019 hPa)
ob: EDLN 012150Z AUTO 13003KT 2700 // FEW004/// OVC008/// 06/06 Q1019
cycle: 22

Station Type Date Time Source
EDLN TAF 2010/02/22 14:20 UTC NOAA

METAR EDLN 221420Z 18010G20KT 090V240 9999 SCT030 BKN045 11/06 Q0986
RMK ATIS R=

Example: see airport list